sensor_id;sensor_type;location;lat;lon;timestamp;P1;durP1;ratioP1;P2;durP2;ratioP2
609;SDS011;292;48.800;9.216;2023-12-07T00:02:12;12.90;;;5.78;;
609;SDS011;292;48.800;9.216;2023-12-07T00:04:42;14.98;;;6.65;;
609;SDS011;292;48.800;9.216;2023-12-07T00:07:09;15.95;;;6.20;;
609;SDS011;292;48.800;9.216;2023-12-07T00:09:38;13.80;;;6.53;;
609;SDS011;292;48.800;9.216;2023-12-07T00:12:05;13.32;;;6.53;;
609;SDS011;292;48.800;9.216;2023-12-07T00:14:33;10.60;;;5.60;;
609;SDS011;292;48.800;9.216;2023-12-07T00:17:00;13.52;;;5.72;;
609;SDS011;292;48.800;9.216;2023-12-07T00:19:28;10.57;;;5.97;;
609;SDS011;292;48.800;9.216;2023-12-07T00:21:56;11.77;;;6.10;;
609;SDS011;292;48.800;9.216;2023-12-07T00:24:24;14.32;;;5.15;;
609;SDS011;292;48.800;9.216;2023-12-07T00:26:52;13.88;;;5.55;;
609;SDS011;292;48.800;9.216;2023-12-07T00:29:19;13.30;;;5.43;;
609;SDS011;292;48.800;9.216;2023-12-07T00:31:47;13.40;;;5.95;;
609;SDS011;292;48.800;9.216;2023-12-07T00:34:18;11.45;;;5.43;;
609;SDS011;292;48.800;9.216;2023-12-07T00:36:46;12.95;;;6.35;;
609;SDS011;292;48.800;9.216;2023-12-07T00:39:14;19.83;;;7.43;;
609;SDS011;292;48.800;9.216;2023-12-07T00:41:43;16.35;;;6.72;;
609;SDS011;292;48.800;9.216;2023-12-07T00:44:12;15.27;;;7.40;;
609;SDS011;292;48.800;9.216;2023-12-07T00:46:39;15.60;;;7.00;;
609;SDS011;292;48.800;9.216;2023-12-07T00:49:06;13.55;;;7.10;;
609;SDS011;292;48.800;9.216;2023-12-07T00:51:34;11.98;;;6.78;;
609;SDS011;292;48.800;9.216;2023-12-07T00:54:01;13.25;;;6.38;;
609;SDS011;292;48.800;9.216;2023-12-07T00:56:29;12.95;;;5.95;;
609;SDS011;292;48.800;9.216;2023-12-07T00:58:56;16.20;;;6.60;;
609;SDS011;292;48.800;9.216;2023-12-07T01:01:27;11.32;;;5.93;;
609;SDS011;292;48.800;9.216;2023-12-07T01:03:54;9.70;;;5.40;;
609;SDS011;292;48.800;9.216;2023-12-07T01:06:22;12.57;;;5.47;;
609;SDS011;292;48.800;9.216;2023-12-07T01:08:49;16.17;;;6.28;;
609;SDS011;292;48.800;9.216;2023-12-07T01:11:17;15.07;;;6.45;;
609;SDS011;292;48.800;9.216;2023-12-07T01:13:45;13.32;;;6.80;;
609;SDS011;292;48.800;9.216;2023-12-07T01:16:14;18.55;;;8.05;;
609;SDS011;292;48.800;9.216;2023-12-07T01:18:42;18.60;;;7.95;;
609;SDS011;292;48.800;9.216;2023-12-07T01:21:12;15.25;;;7.13;;
609;SDS011;292;48.800;9.216;2023-12-07T01:23:41;14.48;;;6.75;;
609;SDS011;292;48.800;9.216;2023-12-07T01:26:08;15.35;;;7.13;;
609;SDS011;292;48.800;9.216;2023-12-07T01:28:35;15.63;;;6.95;;
609;SDS011;292;48.800;9.216;2023-12-07T01:31:04;12.45;;;6.00;;
609;SDS011;292;48.800;9.216;2023-12-07T01:33:31;15.75;;;7.10;;
609;SDS011;292;48.800;9.216;2023-12-07T01:35:58;15.63;;;7.07;;
609;SDS011;292;48.800;9.216;2023-12-07T01:38:25;12.00;;;6.50;;
609;SDS011;292;48.800;9.216;2023-12-07T01:40:52;13.25;;;6.40;;
609;SDS011;292;48.800;9.216;2023-12-07T01:43:22;12.90;;;5.97;;
609;SDS011;292;48.800;9.216;2023-12-07T01:45:49;13.85;;;6.85;;
609;SDS011;292;48.800;9.216;2023-12-07T01:48:23;16.30;;;7.65;;
609;SDS011;292;48.800;9.216;2023-12-07T01:50:52;18.95;;;7.65;;
609;SDS011;292;48.800;9.216;2023-12-07T01:53:20;16.48;;;7.25;;
609;SDS011;292;48.800;9.216;2023-12-07T01:55:49;12.38;;;6.78;;
609;SDS011;292;48.800;9.216;2023-12-07T01:58:18;14.85;;;7.78;;
609;SDS011;292;48.800;9.216;2023-12-07T02:00:46;16.70;;;8.30;;
609;SDS011;292;48.800;9.216;2023-12-07T02:03:13;15.75;;;7.55;;
609;SDS011;292;48.800;9.216;2023-12-07T02:05:45;16.98;;;7.28;;
609;SDS011;292;48.800;9.216;2023-12-07T02:08:14;16.08;;;7.82;;
609;SDS011;292;48.800;9.216;2023-12-07T02:10:41;19.83;;;7.63;;
609;SDS011;292;48.800;9.216;2023-12-07T02:13:08;20.02;;;8.18;;
609;SDS011;292;48.800;9.216;2023-12-07T02:15:35;17.58;;;8.35;;
609;SDS011;292;48.800;9.216;2023-12-07T02:18:02;20.48;;;8.63;;
609;SDS011;292;48.800;9.216;2023-12-07T02:20:37;18.10;;;8.43;;
609;SDS011;292;48.800;9.216;2023-12-07T02:23:09;18.20;;;8.90;;
609;SDS011;292;48.800;9.216;2023-12-07T02:25:40;19.45;;;9.07;;
609;SDS011;292;48.800;9.216;2023-12-07T02:28:16;22.45;;;9.38;;
609;SDS011;292;48.800;9.216;2023-12-07T02:30:43;17.73;;;8.00;;
609;SDS011;292;48.800;9.216;2023-12-07T02:33:10;18.33;;;8.30;;
609;SDS011;292;48.800;9.216;2023-12-07T02:35:38;21.80;;;9.40;;
609;SDS011;292;48.800;9.216;2023-12-07T02:38:06;18.25;;;9.40;;
609;SDS011;292;48.800;9.216;2023-12-07T02:40:35;21.00;;;8.82;;
609;SDS011;292;48.800;9.216;2023-12-07T02:43:05;20.55;;;8.23;;
609;SDS011;292;48.800;9.216;2023-12-07T02:45:34;17.85;;;8.60;;
609;SDS011;292;48.800;9.216;2023-12-07T02:48:02;18.38;;;8.88;;
609;SDS011;292;48.800;9.216;2023-12-07T02:50:29;16.80;;;8.60;;
609;SDS011;292;48.800;9.216;2023-12-07T02:52:56;17.15;;;8.82;;
609;SDS011;292;48.800;9.216;2023-12-07T02:55:26;17.63;;;8.15;;
609;SDS011;292;48.800;9.216;2023-12-07T02:57:54;18.33;;;8.88;;
609;SDS011;292;48.800;9.216;2023-12-07T03:00:23;15.50;;;7.45;;
609;SDS011;292;48.800;9.216;2023-12-07T03:02:52;24.45;;;8.52;;
609;SDS011;292;48.800;9.216;2023-12-07T03:05:19;19.33;;;8.85;;
609;SDS011;292;48.800;9.216;2023-12-07T03:07:48;16.08;;;7.85;;
609;SDS011;292;48.800;9.216;2023-12-07T03:10:15;21.95;;;8.52;;
609;SDS011;292;48.800;9.216;2023-12-07T03:12:42;22.00;;;8.90;;
609;SDS011;292;48.800;9.216;2023-12-07T03:15:09;16.42;;;8.77;;
609;SDS011;292;48.800;9.216;2023-12-07T03:17:38;18.45;;;7.72;;
609;SDS011;292;48.800;9.216;2023-12-07T03:20:08;17.38;;;8.10;;
609;SDS011;292;48.800;9.216;2023-12-07T03:22:36;18.08;;;8.38;;
609;SDS011;292;48.800;9.216;2023-12-07T03:25:04;15.98;;;7.82;;
609;SDS011;292;48.800;9.216;2023-12-07T03:27:31;15.88;;;8.25;;
609;SDS011;292;48.800;9.216;2023-12-07T03:29:59;16.98;;;8.63;;
609;SDS011;292;48.800;9.216;2023-12-07T03:32:26;14.27;;;8.02;;
609;SDS011;292;48.800;9.216;2023-12-07T03:34:53;18.30;;;8.85;;
609;SDS011;292;48.800;9.216;2023-12-07T03:37:22;17.67;;;7.53;;
609;SDS011;292;48.800;9.216;2023-12-07T03:39:52;16.30;;;8.43;;
609;SDS011;292;48.800;9.216;2023-12-07T03:42:19;15.27;;;8.05;;
609;SDS011;292;48.800;9.216;2023-12-07T03:44:46;15.45;;;8.45;;
609;SDS011;292;48.800;9.216;2023-12-07T03:47:15;26.55;;;10.43;;
609;SDS011;292;48.800;9.216;2023-12-07T03:49:44;20.05;;;8.52;;
609;SDS011;292;48.800;9.216;2023-12-07T03:52:11;19.45;;;8.98;;
609;SDS011;292;48.800;9.216;2023-12-07T03:54:40;18.27;;;7.68;;
609;SDS011;292;48.800;9.216;2023-12-07T03:57:07;16.83;;;8.40;;
609;SDS011;292;48.800;9.216;2023-12-07T03:59:35;18.27;;;9.15;;
609;SDS011;292;48.800;9.216;2023-12-07T04:02:03;16.60;;;8.20;;
609;SDS011;292;48.800;9.216;2023-12-07T04:04:30;16.60;;;8.60;;
609;SDS011;292;48.800;9.216;2023-12-07T04:06:59;16.73;;;7.82;;
609;SDS011;292;48.800;9.216;2023-12-07T04:09:26;16.42;;;7.20;;
609;SDS011;292;48.800;9.216;2023-12-07T04:11:55;14.27;;;6.93;;
609;SDS011;292;48.800;9.216;2023-12-07T04:14:25;15.75;;;7.60;;
609;SDS011;292;48.800;9.216;2023-12-07T04:16:52;16.48;;;8.43;;
609;SDS011;292;48.800;9.216;2023-12-07T04:19:19;14.93;;;8.15;;
609;SDS011;292;48.800;9.216;2023-12-07T04:21:47;14.07;;;7.75;;
609;SDS011;292;48.800;9.216;2023-12-07T04:24:14;17.15;;;8.32;;
609;SDS011;292;48.800;9.216;2023-12-07T04:26:42;13.75;;;7.22;;
609;SDS011;292;48.800;9.216;2023-12-07T04:29:11;19.27;;;7.75;;
609;SDS011;292;48.800;9.216;2023-12-07T04:31:38;19.40;;;7.47;;
609;SDS011;292;48.800;9.216;2023-12-07T04:34:05;16.67;;;8.85;;
609;SDS011;292;48.800;9.216;2023-12-07T04:36:32;15.05;;;7.15;;
609;SDS011;292;48.800;9.216;2023-12-07T04:38:59;18.77;;;8.07;;
609;SDS011;292;48.800;9.216;2023-12-07T04:41:27;14.93;;;7.60;;
609;SDS011;292;48.800;9.216;2023-12-07T04:43:54;17.88;;;7.65;;
609;SDS011;292;48.800;9.216;2023-12-07T04:46:25;21.33;;;7.53;;
609;SDS011;292;48.800;9.216;2023-12-07T04:48:53;15.65;;;7.60;;
609;SDS011;292;48.800;9.216;2023-12-07T04:51:21;14.23;;;6.70;;
609;SDS011;292;48.800;9.216;2023-12-07T04:53:47;15.43;;;7.00;;
609;SDS011;292;48.800;9.216;2023-12-07T04:56:15;21.27;;;7.35;;
609;SDS011;292;48.800;9.216;2023-12-07T04:58:43;15.27;;;7.28;;
609;SDS011;292;48.800;9.216;2023-12-07T05:01:10;16.95;;;7.93;;
609;SDS011;292;48.800;9.216;2023-12-07T05:03:39;12.85;;;7.00;;
609;SDS011;292;48.800;9.216;2023-12-07T05:06:06;14.90;;;6.78;;
609;SDS011;292;48.800;9.216;2023-12-07T05:08:33;13.05;;;6.75;;
609;SDS011;292;48.800;9.216;2023-12-07T05:11:02;13.65;;;6.97;;
609;SDS011;292;48.800;9.216;2023-12-07T05:13:30;17.98;;;7.43;;
609;SDS011;292;48.800;9.216;2023-12-07T05:16:00;13.93;;;6.72;;
609;SDS011;292;48.800;9.216;2023-12-07T05:18:29;13.43;;;6.65;;
609;SDS011;292;48.800;9.216;2023-12-07T05:21:00;16.05;;;6.68;;
609;SDS011;292;48.800;9.216;2023-12-07T05:23:26;17.25;;;7.85;;
609;SDS011;292;48.800;9.216;2023-12-07T05:25:55;17.35;;;7.28;;
609;SDS011;292;48.800;9.216;2023-12-07T05:28:22;15.00;;;6.28;;
609;SDS011;292;48.800;9.216;2023-12-07T05:30:52;19.10;;;6.50;;
609;SDS011;292;48.800;9.216;2023-12-07T05:33:22;15.77;;;6.82;;
609;SDS011;292;48.800;9.216;2023-12-07T05:35:50;17.33;;;7.40;;
609;SDS011;292;48.800;9.216;2023-12-07T05:38:19;13.23;;;6.40;;
609;SDS011;292;48.800;9.216;2023-12-07T05:40:46;14.07;;;7.25;;
609;SDS011;292;48.800;9.216;2023-12-07T05:43:14;13.48;;;7.25;;
609;SDS011;292;48.800;9.216;2023-12-07T05:45:41;11.50;;;6.78;;
609;SDS011;292;48.800;9.216;2023-12-07T05:48:09;13.25;;;7.03;;
609;SDS011;292;48.800;9.216;2023-12-07T05:50:36;13.48;;;7.00;;
609;SDS011;292;48.800;9.216;2023-12-07T05:53:04;18.25;;;8.00;;
609;SDS011;292;48.800;9.216;2023-12-07T05:55:33;13.77;;;6.75;;
609;SDS011;292;48.800;9.216;2023-12-07T05:58:00;24.52;;;8.75;;
609;SDS011;292;48.800;9.216;2023-12-07T06:00:29;17.75;;;7.45;;
609;SDS011;292;48.800;9.216;2023-12-07T06:02:56;20.58;;;7.40;;
609;SDS011;292;48.800;9.216;2023-12-07T06:05:24;17.35;;;7.68;;
609;SDS011;292;48.800;9.216;2023-12-07T06:07:51;19.23;;;8.43;;
609;SDS011;292;48.800;9.216;2023-12-07T06:10:20;20.90;;;8.05;;
609;SDS011;292;48.800;9.216;2023-12-07T06:12:49;20.00;;;8.90;;
609;SDS011;292;48.800;9.216;2023-12-07T06:15:16;20.23;;;8.40;;
609;SDS011;292;48.800;9.216;2023-12-07T06:17:43;19.98;;;8.40;;
609;SDS011;292;48.800;9.216;2023-12-07T06:20:11;17.83;;;8.20;;
609;SDS011;292;48.800;9.216;2023-12-07T06:22:38;21.58;;;8.05;;
609;SDS011;292;48.800;9.216;2023-12-07T06:25:05;18.75;;;8.20;;
609;SDS011;292;48.800;9.216;2023-12-07T06:27:34;18.63;;;8.38;;
609;SDS011;292;48.800;9.216;2023-12-07T06:30:02;22.40;;;8.57;;
609;SDS011;292;48.800;9.216;2023-12-07T06:32:31;20.13;;;9.18;;
609;SDS011;292;48.800;9.216;2023-12-07T06:34:59;17.70;;;8.10;;
609;SDS011;292;48.800;9.216;2023-12-07T06:37:26;16.42;;;8.52;;
609;SDS011;292;48.800;9.216;2023-12-07T06:39:53;26.00;;;9.45;;
609;SDS011;292;48.800;9.216;2023-12-07T06:42:20;23.17;;;9.40;;
609;SDS011;292;48.800;9.216;2023-12-07T06:44:47;20.48;;;9.20;;
609;SDS011;292;48.800;9.216;2023-12-07T06:47:16;19.45;;;8.20;;
609;SDS011;292;48.800;9.216;2023-12-07T06:49:44;27.98;;;9.27;;
609;SDS011;292;48.800;9.216;2023-12-07T06:52:12;25.58;;;10.18;;
609;SDS011;292;48.800;9.216;2023-12-07T06:54:39;30.77;;;10.90;;
609;SDS011;292;48.800;9.216;2023-12-07T06:57:06;24.52;;;10.00;;
609;SDS011;292;48.800;9.216;2023-12-07T06:59:33;25.73;;;10.18;;
609;SDS011;292;48.800;9.216;2023-12-07T07:02:01;22.10;;;9.52;;
609;SDS011;292;48.800;9.216;2023-12-07T07:04:29;25.42;;;11.07;;
609;SDS011;292;48.800;9.216;2023-12-07T07:06:57;17.52;;;9.02;;
609;SDS011;292;48.800;9.216;2023-12-07T07:09:24;19.85;;;10.10;;
609;SDS011;292;48.800;9.216;2023-12-07T07:11:51;29.27;;;10.35;;
609;SDS011;292;48.800;9.216;2023-12-07T07:14:18;26.45;;;10.60;;
609;SDS011;292;48.800;9.216;2023-12-07T07:16:46;22.83;;;9.55;;
609;SDS011;292;48.800;9.216;2023-12-07T07:19:14;29.30;;;10.95;;
609;SDS011;292;48.800;9.216;2023-12-07T07:21:44;22.25;;;10.55;;
609;SDS011;292;48.800;9.216;2023-12-07T07:24:11;29.98;;;11.38;;
609;SDS011;292;48.800;9.216;2023-12-07T07:26:38;23.48;;;10.32;;
609;SDS011;292;48.800;9.216;2023-12-07T07:29:05;23.23;;;9.23;;
609;SDS011;292;48.800;9.216;2023-12-07T07:31:33;25.70;;;11.82;;
609;SDS011;292;48.800;9.216;2023-12-07T07:34:01;21.00;;;10.60;;
609;SDS011;292;48.800;9.216;2023-12-07T07:36:29;27.05;;;9.38;;
609;SDS011;292;48.800;9.216;2023-12-07T07:38:59;21.27;;;9.70;;
609;SDS011;292;48.800;9.216;2023-12-07T07:41:26;29.83;;;10.50;;
609;SDS011;292;48.800;9.216;2023-12-07T07:43:53;20.38;;;10.07;;
609;SDS011;292;48.800;9.216;2023-12-07T07:46:20;19.45;;;10.75;;
609;SDS011;292;48.800;9.216;2023-12-07T07:48:49;22.90;;;10.95;;
609;SDS011;292;48.800;9.216;2023-12-07T07:51:18;22.40;;;10.75;;
609;SDS011;292;48.800;9.216;2023-12-07T07:53:45;26.40;;;10.77;;
609;SDS011;292;48.800;9.216;2023-12-07T07:56:13;19.30;;;9.93;;
609;SDS011;292;48.800;9.216;2023-12-07T07:58:41;24.92;;;10.90;;
609;SDS011;292;48.800;9.216;2023-12-07T08:01:09;30.77;;;10.93;;
609;SDS011;292;48.800;9.216;2023-12-07T08:03:36;27.92;;;11.65;;
609;SDS011;292;48.800;9.216;2023-12-07T08:06:10;19.77;;;9.80;;
609;SDS011;292;48.800;9.216;2023-12-07T08:08:37;28.60;;;11.10;;
609;SDS011;292;48.800;9.216;2023-12-07T08:11:04;28.67;;;11.15;;
609;SDS011;292;48.800;9.216;2023-12-07T08:13:32;25.98;;;11.02;;
609;SDS011;292;48.800;9.216;2023-12-07T08:16:00;30.88;;;10.18;;
609;SDS011;292;48.800;9.216;2023-12-07T08:18:27;28.75;;;11.10;;
609;SDS011;292;48.800;9.216;2023-12-07T08:20:55;24.98;;;9.85;;
609;SDS011;292;48.800;9.216;2023-12-07T08:23:23;29.58;;;12.40;;
609;SDS011;292;48.800;9.216;2023-12-07T08:25:51;26.48;;;11.00;;
609;SDS011;292;48.800;9.216;2023-12-07T08:28:22;30.27;;;11.50;;
609;SDS011;292;48.800;9.216;2023-12-07T08:30:53;24.00;;;10.10;;
609;SDS011;292;48.800;9.216;2023-12-07T08:33:20;22.73;;;10.40;;
609;SDS011;292;48.800;9.216;2023-12-07T08:35:49;26.67;;;10.63;;
609;SDS011;292;48.800;9.216;2023-12-07T08:38:20;29.55;;;11.70;;
609;SDS011;292;48.800;9.216;2023-12-07T08:40:48;26.25;;;11.38;;
609;SDS011;292;48.800;9.216;2023-12-07T08:43:15;24.17;;;11.02;;
609;SDS011;292;48.800;9.216;2023-12-07T08:45:42;25.33;;;9.98;;
609;SDS011;292;48.800;9.216;2023-12-07T08:48:11;25.77;;;10.93;;
609;SDS011;292;48.800;9.216;2023-12-07T08:50:40;29.10;;;11.20;;
609;SDS011;292;48.800;9.216;2023-12-07T08:53:08;27.48;;;12.00;;
609;SDS011;292;48.800;9.216;2023-12-07T08:55:37;28.95;;;11.80;;
609;SDS011;292;48.800;9.216;2023-12-07T08:58:05;22.77;;;10.52;;
609;SDS011;292;48.800;9.216;2023-12-07T09:00:32;22.20;;;9.88;;
609;SDS011;292;48.800;9.216;2023-12-07T09:02:58;28.23;;;10.93;;
609;SDS011;292;48.800;9.216;2023-12-07T09:05:28;21.75;;;10.63;;
609;SDS011;292;48.800;9.216;2023-12-07T09:07:56;34.75;;;11.85;;
609;SDS011;292;48.800;9.216;2023-12-07T09:10:25;25.95;;;10.88;;
609;SDS011;292;48.800;9.216;2023-12-07T09:12:53;26.10;;;11.20;;
609;SDS011;292;48.800;9.216;2023-12-07T09:15:20;28.25;;;12.00;;
609;SDS011;292;48.800;9.216;2023-12-07T09:17:48;29.45;;;10.80;;
609;SDS011;292;48.800;9.216;2023-12-07T09:20:15;22.75;;;10.40;;
609;SDS011;292;48.800;9.216;2023-12-07T09:22:45;26.30;;;10.95;;
609;SDS011;292;48.800;9.216;2023-12-07T09:25:15;25.77;;;11.38;;
609;SDS011;292;48.800;9.216;2023-12-07T09:27:42;23.65;;;10.35;;
609;SDS011;292;48.800;9.216;2023-12-07T09:30:10;25.42;;;10.93;;
609;SDS011;292;48.800;9.216;2023-12-07T09:32:38;20.17;;;10.05;;
609;SDS011;292;48.800;9.216;2023-12-07T09:35:08;21.92;;;10.07;;
609;SDS011;292;48.800;9.216;2023-12-07T09:37:40;18.02;;;9.05;;
609;SDS011;292;48.800;9.216;2023-12-07T09:40:12;16.92;;;9.00;;
609;SDS011;292;48.800;9.216;2023-12-07T09:42:43;18.70;;;9.10;;
609;SDS011;292;48.800;9.216;2023-12-07T09:45:11;20.95;;;9.27;;
609;SDS011;292;48.800;9.216;2023-12-07T09:47:39;19.10;;;8.40;;
609;SDS011;292;48.800;9.216;2023-12-07T09:50:10;18.25;;;8.23;;
609;SDS011;292;48.800;9.216;2023-12-07T09:52:38;15.85;;;8.00;;
609;SDS011;292;48.800;9.216;2023-12-07T09:55:07;22.33;;;9.50;;
609;SDS011;292;48.800;9.216;2023-12-07T09:57:38;19.27;;;8.83;;
609;SDS011;292;48.800;9.216;2023-12-07T10:00:06;16.10;;;7.60;;
609;SDS011;292;48.800;9.216;2023-12-07T10:02:36;15.50;;;7.10;;
609;SDS011;292;48.800;9.216;2023-12-07T10:05:13;13.27;;;5.70;;
609;SDS011;292;48.800;9.216;2023-12-07T10:07:43;14.23;;;7.17;;
609;SDS011;292;48.800;9.216;2023-12-07T10:10:13;15.47;;;6.90;;
609;SDS011;292;48.800;9.216;2023-12-07T10:12:46;16.17;;;7.10;;
609;SDS011;292;48.800;9.216;2023-12-07T10:15:14;14.87;;;7.50;;
609;SDS011;292;48.800;9.216;2023-12-07T10:17:46;18.70;;;7.53;;
609;SDS011;292;48.800;9.216;2023-12-07T10:20:15;17.13;;;7.53;;
609;SDS011;292;48.800;9.216;2023-12-07T10:22:43;13.23;;;7.10;;
609;SDS011;292;48.800;9.216;2023-12-07T10:25:12;19.10;;;7.30;;
609;SDS011;292;48.800;9.216;2023-12-07T10:27:40;21.33;;;7.57;;
609;SDS011;292;48.800;9.216;2023-12-07T10:30:10;15.10;;;8.40;;
609;SDS011;292;48.800;9.216;2023-12-07T10:32:41;16.20;;;8.10;;
609;SDS011;292;48.800;9.216;2023-12-07T10:35:09;22.47;;;8.70;;
609;SDS011;292;48.800;9.216;2023-12-07T10:37:36;15.93;;;7.97;;
609;SDS011;292;48.800;9.216;2023-12-07T10:40:04;16.77;;;7.57;;
609;SDS011;292;48.800;9.216;2023-12-07T10:42:33;16.37;;;7.53;;
609;SDS011;292;48.800;9.216;2023-12-07T10:45:03;21.37;;;8.27;;
609;SDS011;292;48.800;9.216;2023-12-07T10:50:16;14.43;;;7.37;;
609;SDS011;292;48.800;9.216;2023-12-07T10:52:51;17.63;;;7.53;;
609;SDS011;292;48.800;9.216;2023-12-07T10:55:20;27.40;;;7.90;;
609;SDS011;292;48.800;9.216;2023-12-07T10:57:49;18.20;;;7.97;;
609;SDS011;292;48.800;9.216;2023-12-07T11:00:19;14.70;;;7.30;;
609;SDS011;292;48.800;9.216;2023-12-07T11:02:50;14.80;;;7.17;;
609;SDS011;292;48.800;9.216;2023-12-07T11:05:18;13.23;;;7.40;;
609;SDS011;292;48.800;9.216;2023-12-07T11:07:49;14.20;;;8.17;;
609;SDS011;292;48.800;9.216;2023-12-07T11:10:23;17.50;;;7.37;;
609;SDS011;292;48.800;9.216;2023-12-07T11:13:00;22.00;;;8.00;;
609;SDS011;292;48.800;9.216;2023-12-07T11:15:37;13.67;;;6.30;;
609;SDS011;292;48.800;9.216;2023-12-07T11:18:06;12.25;;;6.10;;
609;SDS011;292;48.800;9.216;2023-12-07T11:20:39;16.60;;;6.50;;
609;SDS011;292;48.800;9.216;2023-12-07T11:23:07;36.23;;;7.07;;
609;SDS011;292;48.800;9.216;2023-12-07T11:25:35;12.07;;;6.20;;
609;SDS011;292;48.800;9.216;2023-12-07T11:28:02;15.87;;;7.33;;
609;SDS011;292;48.800;9.216;2023-12-07T11:30:31;16.23;;;6.40;;
609;SDS011;292;48.800;9.216;2023-12-07T11:32:59;20.53;;;7.20;;
609;SDS011;292;48.800;9.216;2023-12-07T11:35:33;21.07;;;6.50;;
609;SDS011;292;48.800;9.216;2023-12-07T11:38:20;12.83;;;5.43;;
609;SDS011;292;48.800;9.216;2023-12-07T11:40:48;12.90;;;5.60;;
609;SDS011;292;48.800;9.216;2023-12-07T11:43:16;19.37;;;5.87;;
609;SDS011;292;48.800;9.216;2023-12-07T11:45:46;13.70;;;4.77;;
609;SDS011;292;48.800;9.216;2023-12-07T11:48:15;13.13;;;5.50;;
609;SDS011;292;48.800;9.216;2023-12-07T11:50:56;15.33;;;5.43;;
609;SDS011;292;48.800;9.216;2023-12-07T11:53:25;8.77;;;4.87;;
609;SDS011;292;48.800;9.216;2023-12-07T11:55:54;15.60;;;6.30;;
609;SDS011;292;48.800;9.216;2023-12-07T11:58:27;17.00;;;6.50;;
609;SDS011;292;48.800;9.216;2023-12-07T12:00:56;17.40;;;6.23;;
609;SDS011;292;48.800;9.216;2023-12-07T12:03:26;12.20;;;5.53;;
609;SDS011;292;48.800;9.216;2023-12-07T12:05:56;18.00;;;5.73;;
609;SDS011;292;48.800;9.216;2023-12-07T12:08:23;10.57;;;6.00;;
609;SDS011;292;48.800;9.216;2023-12-07T12:10:51;14.23;;;5.80;;
609;SDS011;292;48.800;9.216;2023-12-07T12:13:25;15.23;;;4.87;;
609;SDS011;292;48.800;9.216;2023-12-07T12:15:53;11.67;;;5.67;;
609;SDS011;292;48.800;9.216;2023-12-07T12:18:21;11.07;;;5.00;;
609;SDS011;292;48.800;9.216;2023-12-07T12:20:50;9.13;;;4.73;;
609;SDS011;292;48.800;9.216;2023-12-07T12:23:19;14.20;;;5.57;;
609;SDS011;292;48.800;9.216;2023-12-07T12:25:48;13.33;;;4.90;;
609;SDS011;292;48.800;9.216;2023-12-07T12:28:18;10.65;;;5.28;;
609;SDS011;292;48.800;9.216;2023-12-07T12:30:48;11.57;;;5.18;;
609;SDS011;292;48.800;9.216;2023-12-07T12:33:19;12.83;;;5.83;;
609;SDS011;292;48.800;9.216;2023-12-07T12:36:00;14.05;;;5.65;;
609;SDS011;292;48.800;9.216;2023-12-07T12:38:31;11.83;;;5.00;;
609;SDS011;292;48.800;9.216;2023-12-07T12:40:59;10.73;;;5.17;;
609;SDS011;292;48.800;9.216;2023-12-07T12:43:29;11.90;;;5.43;;
609;SDS011;292;48.800;9.216;2023-12-07T12:45:57;17.55;;;7.00;;
609;SDS011;292;48.800;9.216;2023-12-07T12:48:24;13.97;;;5.90;;
609;SDS011;292;48.800;9.216;2023-12-07T12:50:50;17.37;;;6.00;;
609;SDS011;292;48.800;9.216;2023-12-07T12:53:18;11.30;;;5.27;;
609;SDS011;292;48.800;9.216;2023-12-07T12:55:48;11.03;;;4.90;;
609;SDS011;292;48.800;9.216;2023-12-07T12:58:16;28.97;;;6.97;;
609;SDS011;292;48.800;9.216;2023-12-07T13:00:47;21.17;;;7.07;;
609;SDS011;292;48.800;9.216;2023-12-07T13:03:15;13.70;;;6.30;;
609;SDS011;292;48.800;9.216;2023-12-07T13:05:43;11.07;;;5.30;;
609;SDS011;292;48.800;9.216;2023-12-07T13:08:17;21.35;;;6.00;;
609;SDS011;292;48.800;9.216;2023-12-07T13:10:47;12.20;;;4.57;;
609;SDS011;292;48.800;9.216;2023-12-07T13:13:17;15.03;;;5.20;;
609;SDS011;292;48.800;9.216;2023-12-07T13:15:51;10.80;;;5.00;;
609;SDS011;292;48.800;9.216;2023-12-07T13:18:20;27.67;;;5.80;;
609;SDS011;292;48.800;9.216;2023-12-07T13:20:48;22.53;;;5.13;;
609;SDS011;292;48.800;9.216;2023-12-07T13:23:18;12.85;;;4.80;;
609;SDS011;292;48.800;9.216;2023-12-07T13:25:46;9.80;;;4.60;;
609;SDS011;292;48.800;9.216;2023-12-07T13:28:15;10.37;;;4.27;;
609;SDS011;292;48.800;9.216;2023-12-07T13:30:44;12.20;;;5.40;;
609;SDS011;292;48.800;9.216;2023-12-07T13:33:11;11.82;;;5.32;;
609;SDS011;292;48.800;9.216;2023-12-07T13:35:40;11.27;;;4.77;;
609;SDS011;292;48.800;9.216;2023-12-07T13:38:07;9.47;;;4.87;;
609;SDS011;292;48.800;9.216;2023-12-07T13:40:35;10.93;;;5.70;;
609;SDS011;292;48.800;9.216;2023-12-07T13:43:04;12.68;;;5.30;;
609;SDS011;292;48.800;9.216;2023-12-07T13:45:31;15.93;;;4.65;;
609;SDS011;292;48.800;9.216;2023-12-07T13:47:59;11.90;;;4.15;;
609;SDS011;292;48.800;9.216;2023-12-07T13:50:26;7.10;;;3.95;;
609;SDS011;292;48.800;9.216;2023-12-07T13:52:55;8.30;;;4.43;;
609;SDS011;292;48.800;9.216;2023-12-07T13:55:24;12.88;;;5.15;;
609;SDS011;292;48.800;9.216;2023-12-07T13:57:51;9.07;;;4.57;;
609;SDS011;292;48.800;9.216;2023-12-07T14:00:21;9.20;;;4.50;;
609;SDS011;292;48.800;9.216;2023-12-07T14:02:48;8.73;;;4.10;;
609;SDS011;292;48.800;9.216;2023-12-07T14:05:17;9.93;;;3.60;;
609;SDS011;292;48.800;9.216;2023-12-07T14:07:46;14.32;;;4.70;;
609;SDS011;292;48.800;9.216;2023-12-07T14:10:15;5.75;;;2.42;;
609;SDS011;292;48.800;9.216;2023-12-07T14:12:43;4.85;;;2.40;;
609;SDS011;292;48.800;9.216;2023-12-07T14:15:14;5.40;;;2.25;;
609;SDS011;292;48.800;9.216;2023-12-07T14:17:43;6.18;;;2.10;;
609;SDS011;292;48.800;9.216;2023-12-07T14:20:11;8.30;;;2.45;;
609;SDS011;292;48.800;9.216;2023-12-07T14:22:39;6.57;;;1.70;;
609;SDS011;292;48.800;9.216;2023-12-07T14:25:07;6.63;;;2.10;;
609;SDS011;292;48.800;9.216;2023-12-07T14:27:37;6.35;;;2.10;;
609;SDS011;292;48.800;9.216;2023-12-07T14:30:07;4.80;;;2.38;;
609;SDS011;292;48.800;9.216;2023-12-07T14:32:35;6.63;;;1.90;;
609;SDS011;292;48.800;9.216;2023-12-07T14:35:07;8.18;;;2.70;;
609;SDS011;292;48.800;9.216;2023-12-07T14:37:38;2.47;;;1.63;;
609;SDS011;292;48.800;9.216;2023-12-07T14:40:08;2.47;;;1.52;;
609;SDS011;292;48.800;9.216;2023-12-07T14:42:36;7.20;;;1.98;;
609;SDS011;292;48.800;9.216;2023-12-07T14:45:07;9.40;;;1.85;;
609;SDS011;292;48.800;9.216;2023-12-07T14:47:36;7.95;;;1.90;;
609;SDS011;292;48.800;9.216;2023-12-07T14:50:05;3.75;;;1.73;;
609;SDS011;292;48.800;9.216;2023-12-07T14:52:33;6.00;;;1.77;;
609;SDS011;292;48.800;9.216;2023-12-07T14:55:00;9.07;;;2.47;;
609;SDS011;292;48.800;9.216;2023-12-07T14:57:31;6.28;;;2.25;;
609;SDS011;292;48.800;9.216;2023-12-07T14:59:58;6.35;;;2.03;;
609;SDS011;292;48.800;9.216;2023-12-07T15:02:25;6.20;;;2.00;;
609;SDS011;292;48.800;9.216;2023-12-07T15:04:52;6.00;;;2.50;;
609;SDS011;292;48.800;9.216;2023-12-07T15:07:21;4.00;;;2.17;;
609;SDS011;292;48.800;9.216;2023-12-07T15:09:49;7.60;;;2.20;;
609;SDS011;292;48.800;9.216;2023-12-07T15:12:17;11.00;;;2.65;;
609;SDS011;292;48.800;9.216;2023-12-07T15:14:45;6.70;;;2.30;;
609;SDS011;292;48.800;9.216;2023-12-07T15:17:13;3.92;;;1.90;;
609;SDS011;292;48.800;9.216;2023-12-07T15:19:41;6.63;;;2.10;;
609;SDS011;292;48.800;9.216;2023-12-07T15:22:08;4.57;;;2.40;;
609;SDS011;292;48.800;9.216;2023-12-07T15:24:41;7.38;;;2.28;;
609;SDS011;292;48.800;9.216;2023-12-07T15:27:08;5.50;;;2.75;;
609;SDS011;292;48.800;9.216;2023-12-07T15:29:36;5.53;;;2.10;;
609;SDS011;292;48.800;9.216;2023-12-07T15:32:04;3.72;;;2.15;;
609;SDS011;292;48.800;9.216;2023-12-07T15:34:34;17.83;;;3.22;;
609;SDS011;292;48.800;9.216;2023-12-07T15:37:04;14.70;;;4.22;;
609;SDS011;292;48.800;9.216;2023-12-07T15:39:34;7.05;;;3.47;;
609;SDS011;292;48.800;9.216;2023-12-07T15:42:10;9.90;;;2.55;;